Portada
METAR-TAF:

METAR-TAF

Aeroports :

Agartala, Índia

latitud: 23-53-24N, longitud: 91-14-32E, altitud: 14 m

Observació

L'informe es va fer fa 28 minuts, a les 09:30 UTC
Vent calma
Temperatura 26°C
Humitat 54%
Pressió 1014 hPa
Visibilitat: 5000 m
Escasses núvols a una alçada de 2000 ft
calitja

METAR: VEAT 150930Z 00000KT 5000 HZ FEW020 26/16 Q1014 NOSIG

Hora: 15:28 (09:58 UTC)

Pronòstic

L'informe es va fer fa 1 hora i 58 minuts, a les 08:00 UTC
Pronòstic vàlid del 15 a les 09 UTC al 15 a les 18 UTC
Vent kt del Nord
Visibilitat: 5000 m
calitja
Evolucionant progressivament
l' 15 a les 14 UTC al 15 a les 16 UTC
Visibilitat: 3000 m
boirina

TAF: VEAT 150800Z 1509/1518 00000KT 5000 HZ NSC BECMG 1514/1516 3000 BR

Observacions i pronòstics meteorològics de més de 4000 aeroports (METAR i TAF).

Les estacions disponibles són els punts grocs i vermells al mapa.

Posi el ratolí al punt desitjat per veure el nom de l'estació.

Feu clic per veure les observacions i els pronòstics meteorològics.

Per canviar el mapa: feu clic els botons verds amb una creu de color negre per apropar; al botó verd amb un guió per allunyar la imatge; o en les fletxes verdes per a mapes adjacents.


METAR-TAF: